Crest Hill, Illinois
Current Conditions -  °F | °C
As of 7:35 AM on Monday 22 Dec 2014 (Local Time) from KJOT Reporting Station
Haze Haze  
Wind Chill: 26°   Ceiling: 8000
Heat Index: 32°   Visibility: 5mi
Dew Point: 28°   Wind: 7mph
Humidity: 86%   Direction: 110°ESE
Pressure: 29.9"   Gusts: NA
Location:  41.55°N, 88.12°W
Report Text: KJOT 221335Z AUTO 11006KT 5SM BR SCT065 OVC080 00/M02 A2990 RMK AO2 T00001021
Loading
Personal Weather Stations






























Interactive Weather Map New forecast layout! Learn more

10-Day Weather Forecast

Advertisements
Track Severe Weather on mobile